sensor_id;sensor_type;location;lat;lon;timestamp;P1;durP1;ratioP1;P2;durP2;ratioP2
46322;SDS011;32044;52.386;13.278;2023-04-24T00:01:58;12.25;;;7.63;;
46322;SDS011;32044;52.386;13.278;2023-04-24T00:04:27;9.43;;;7.50;;
46322;SDS011;32044;52.386;13.278;2023-04-24T00:06:54;9.52;;;8.57;;
46322;SDS011;32044;52.386;13.278;2023-04-24T00:09:23;9.52;;;8.15;;
46322;SDS011;32044;52.386;13.278;2023-04-24T00:11:52;11.88;;;8.35;;
46322;SDS011;32044;52.386;13.278;2023-04-24T00:14:20;9.90;;;7.97;;
46322;SDS011;32044;52.386;13.278;2023-04-24T00:16:48;9.95;;;7.78;;
46322;SDS011;32044;52.386;13.278;2023-04-24T00:19:16;9.95;;;8.48;;
46322;SDS011;32044;52.386;13.278;2023-04-24T00:21:47;9.50;;;7.85;;
46322;SDS011;32044;52.386;13.278;2023-04-24T00:24:16;9.77;;;8.27;;
46322;SDS011;32044;52.386;13.278;2023-04-24T00:26:44;11.93;;;9.10;;
46322;SDS011;32044;52.386;13.278;2023-04-24T00:29:13;11.93;;;8.77;;
46322;SDS011;32044;52.386;13.278;2023-04-24T00:31:40;9.40;;;8.05;;
46322;SDS011;32044;52.386;13.278;2023-04-24T00:34:08;10.10;;;8.25;;
46322;SDS011;32044;52.386;13.278;2023-04-24T00:36:36;9.05;;;8.10;;
46322;SDS011;32044;52.386;13.278;2023-04-24T00:39:04;10.10;;;7.53;;
46322;SDS011;32044;52.386;13.278;2023-04-24T00:41:31;10.75;;;8.43;;
46322;SDS011;32044;52.386;13.278;2023-04-24T00:43:59;10.57;;;8.73;;
46322;SDS011;32044;52.386;13.278;2023-04-24T00:46:28;11.57;;;8.55;;
46322;SDS011;32044;52.386;13.278;2023-04-24T00:48:56;11.57;;;8.70;;
46322;SDS011;32044;52.386;13.278;2023-04-24T00:51:23;10.93;;;8.52;;
46322;SDS011;32044;52.386;13.278;2023-04-24T00:53:51;9.85;;;8.48;;
46322;SDS011;32044;52.386;13.278;2023-04-24T00:56:18;9.55;;;8.18;;
46322;SDS011;32044;52.386;13.278;2023-04-24T00:58:46;11.75;;;8.65;;
46322;SDS011;32044;52.386;13.278;2023-04-24T01:01:14;11.93;;;8.70;;
46322;SDS011;32044;52.386;13.278;2023-04-24T01:03:43;12.27;;;9.07;;
46322;SDS011;32044;52.386;13.278;2023-04-24T01:06:12;9.55;;;8.55;;
46322;SDS011;32044;52.386;13.278;2023-04-24T01:08:40;9.65;;;8.18;;
46322;SDS011;32044;52.386;13.278;2023-04-24T01:11:08;10.52;;;7.43;;
46322;SDS011;32044;52.386;13.278;2023-04-24T01:13:36;8.52;;;7.32;;
46322;SDS011;32044;52.386;13.278;2023-04-24T01:16:03;12.00;;;8.35;;
46322;SDS011;32044;52.386;13.278;2023-04-24T01:18:31;13.23;;;8.07;;
46322;SDS011;32044;52.386;13.278;2023-04-24T01:21:01;9.35;;;7.90;;
46322;SDS011;32044;52.386;13.278;2023-04-24T01:23:31;12.02;;;9.00;;
46322;SDS011;32044;52.386;13.278;2023-04-24T01:25:59;10.73;;;8.60;;
46322;SDS011;32044;52.386;13.278;2023-04-24T01:28:27;9.48;;;8.15;;
46322;SDS011;32044;52.386;13.278;2023-04-24T01:30:54;12.82;;;9.50;;
46322;SDS011;32044;52.386;13.278;2023-04-24T01:33:22;12.57;;;9.45;;
46322;SDS011;32044;52.386;13.278;2023-04-24T01:35:50;12.73;;;8.80;;
46322;SDS011;32044;52.386;13.278;2023-04-24T01:38:17;12.18;;;9.50;;
46322;SDS011;32044;52.386;13.278;2023-04-24T01:40:46;10.75;;;9.13;;
46322;SDS011;32044;52.386;13.278;2023-04-24T01:43:14;12.52;;;10.10;;
46322;SDS011;32044;52.386;13.278;2023-04-24T01:45:42;11.63;;;9.75;;
46322;SDS011;32044;52.386;13.278;2023-04-24T01:48:09;11.15;;;9.43;;
46322;SDS011;32044;52.386;13.278;2023-04-24T01:50:38;10.90;;;8.80;;
46322;SDS011;32044;52.386;13.278;2023-04-24T01:53:06;12.52;;;9.18;;
46322;SDS011;32044;52.386;13.278;2023-04-24T01:55:33;11.82;;;8.77;;
46322;SDS011;32044;52.386;13.278;2023-04-24T01:58:02;10.88;;;8.40;;
46322;SDS011;32044;52.386;13.278;2023-04-24T02:00:30;13.88;;;9.68;;
46322;SDS011;32044;52.386;13.278;2023-04-24T02:02:57;13.93;;;9.98;;
46322;SDS011;32044;52.386;13.278;2023-04-24T02:05:25;10.95;;;9.85;;
46322;SDS011;32044;52.386;13.278;2023-04-24T02:07:53;12.38;;;9.98;;
46322;SDS011;32044;52.386;13.278;2023-04-24T02:10:21;12.50;;;9.93;;
46322;SDS011;32044;52.386;13.278;2023-04-24T02:12:49;15.82;;;11.02;;
46322;SDS011;32044;52.386;13.278;2023-04-24T02:15:18;13.30;;;11.00;;
46322;SDS011;32044;52.386;13.278;2023-04-24T02:17:45;12.70;;;10.05;;
46322;SDS011;32044;52.386;13.278;2023-04-24T02:20:13;11.88;;;10.68;;
46322;SDS011;32044;52.386;13.278;2023-04-24T02:22:41;13.38;;;10.90;;
46322;SDS011;32044;52.386;13.278;2023-04-24T02:25:08;11.00;;;9.80;;
46322;SDS011;32044;52.386;13.278;2023-04-24T02:27:36;11.27;;;9.93;;
46322;SDS011;32044;52.386;13.278;2023-04-24T02:30:04;15.32;;;11.40;;
46322;SDS011;32044;52.386;13.278;2023-04-24T02:32:34;16.90;;;11.60;;
46322;SDS011;32044;52.386;13.278;2023-04-24T02:35:01;17.92;;;11.43;;
46322;SDS011;32044;52.386;13.278;2023-04-24T02:37:29;13.25;;;11.10;;
46322;SDS011;32044;52.386;13.278;2023-04-24T02:39:56;14.35;;;11.68;;
46322;SDS011;32044;52.386;13.278;2023-04-24T02:42:24;13.50;;;11.48;;
46322;SDS011;32044;52.386;13.278;2023-04-24T02:44:51;14.40;;;11.02;;
46322;SDS011;32044;52.386;13.278;2023-04-24T02:47:19;13.45;;;11.35;;
46322;SDS011;32044;52.386;13.278;2023-04-24T02:49:48;13.68;;;10.90;;
46322;SDS011;32044;52.386;13.278;2023-04-24T02:52:16;12.98;;;10.75;;
46322;SDS011;32044;52.386;13.278;2023-04-24T02:54:43;13.05;;;10.70;;
46322;SDS011;32044;52.386;13.278;2023-04-24T02:57:11;12.32;;;10.98;;
46322;SDS011;32044;52.386;13.278;2023-04-24T02:59:38;14.35;;;11.23;;
46322;SDS011;32044;52.386;13.278;2023-04-24T03:02:06;12.50;;;10.82;;
46322;SDS011;32044;52.386;13.278;2023-04-24T03:04:34;11.93;;;10.63;;
46322;SDS011;32044;52.386;13.278;2023-04-24T03:07:03;12.88;;;10.40;;
46322;SDS011;32044;52.386;13.278;2023-04-24T03:09:30;12.80;;;10.82;;
46322;SDS011;32044;52.386;13.278;2023-04-24T03:11:58;11.18;;;10.05;;
46322;SDS011;32044;52.386;13.278;2023-04-24T03:14:26;14.07;;;11.30;;
46322;SDS011;32044;52.386;13.278;2023-04-24T03:16:55;14.18;;;11.05;;
46322;SDS011;32044;52.386;13.278;2023-04-24T03:19:23;11.43;;;10.23;;
46322;SDS011;32044;52.386;13.278;2023-04-24T03:21:51;15.20;;;10.70;;
46322;SDS011;32044;52.386;13.278;2023-04-24T03:24:19;11.02;;;9.63;;
46322;SDS011;32044;52.386;13.278;2023-04-24T03:26:47;14.70;;;10.88;;
46322;SDS011;32044;52.386;13.278;2023-04-24T03:29:15;11.45;;;9.10;;
46322;SDS011;32044;52.386;13.278;2023-04-24T03:31:42;11.77;;;10.10;;
46322;SDS011;32044;52.386;13.278;2023-04-24T03:34:10;13.10;;;10.13;;
46322;SDS011;32044;52.386;13.278;2023-04-24T03:36:37;12.95;;;11.15;;
46322;SDS011;32044;52.386;13.278;2023-04-24T03:39:05;12.00;;;10.45;;
46322;SDS011;32044;52.386;13.278;2023-04-24T03:41:34;11.80;;;9.63;;
46322;SDS011;32044;52.386;13.278;2023-04-24T03:44:01;12.18;;;9.70;;
46322;SDS011;32044;52.386;13.278;2023-04-24T03:46:29;14.45;;;10.65;;
46322;SDS011;32044;52.386;13.278;2023-04-24T03:48:56;11.70;;;9.60;;
46322;SDS011;32044;52.386;13.278;2023-04-24T03:51:24;11.25;;;9.90;;
46322;SDS011;32044;52.386;13.278;2023-04-24T03:53:54;11.23;;;8.60;;
46322;SDS011;32044;52.386;13.278;2023-04-24T03:56:21;11.82;;;8.00;;
46322;SDS011;32044;52.386;13.278;2023-04-24T03:58:50;9.82;;;8.13;;
46322;SDS011;32044;52.386;13.278;2023-04-24T04:01:18;8.75;;;7.63;;
46322;SDS011;32044;52.386;13.278;2023-04-24T04:03:47;9.48;;;7.22;;
46322;SDS011;32044;52.386;13.278;2023-04-24T04:06:14;9.35;;;7.30;;
46322;SDS011;32044;52.386;13.278;2023-04-24T04:08:42;8.68;;;6.63;;
46322;SDS011;32044;52.386;13.278;2023-04-24T04:11:09;10.55;;;6.75;;
46322;SDS011;32044;52.386;13.278;2023-04-24T04:13:37;7.85;;;5.68;;
46322;SDS011;32044;52.386;13.278;2023-04-24T04:16:06;8.57;;;6.10;;
46322;SDS011;32044;52.386;13.278;2023-04-24T04:18:34;6.10;;;5.38;;
46322;SDS011;32044;52.386;13.278;2023-04-24T04:21:01;5.55;;;5.05;;
46322;SDS011;32044;52.386;13.278;2023-04-24T04:23:29;6.57;;;5.18;;
46322;SDS011;32044;52.386;13.278;2023-04-24T04:25:58;5.90;;;5.30;;
46322;SDS011;32044;52.386;13.278;2023-04-24T04:28:25;6.00;;;5.18;;
46322;SDS011;32044;52.386;13.278;2023-04-24T04:30:53;6.82;;;4.93;;
46322;SDS011;32044;52.386;13.278;2023-04-24T04:33:22;6.28;;;4.93;;
46322;SDS011;32044;52.386;13.278;2023-04-24T04:35:50;6.47;;;4.68;;
46322;SDS011;32044;52.386;13.278;2023-04-24T04:38:18;4.90;;;4.40;;
46322;SDS011;32044;52.386;13.278;2023-04-24T04:40:46;4.95;;;4.10;;
46322;SDS011;32044;52.386;13.278;2023-04-24T04:43:14;4.93;;;4.40;;
46322;SDS011;32044;52.386;13.278;2023-04-24T04:45:42;7.38;;;4.47;;
46322;SDS011;32044;52.386;13.278;2023-04-24T04:48:11;5.97;;;4.68;;
46322;SDS011;32044;52.386;13.278;2023-04-24T04:50:41;4.78;;;4.28;;
46322;SDS011;32044;52.386;13.278;2023-04-24T04:53:08;9.32;;;4.30;;
46322;SDS011;32044;52.386;13.278;2023-04-24T04:55:36;5.05;;;4.32;;
46322;SDS011;32044;52.386;13.278;2023-04-24T04:58:04;5.15;;;4.25;;
46322;SDS011;32044;52.386;13.278;2023-04-24T05:00:31;4.38;;;3.35;;
46322;SDS011;32044;52.386;13.278;2023-04-24T05:03:02;3.55;;;2.90;;
46322;SDS011;32044;52.386;13.278;2023-04-24T05:05:46;3.80;;;3.22;;
46322;SDS011;32044;52.386;13.278;2023-04-24T05:08:14;3.85;;;3.45;;
46322;SDS011;32044;52.386;13.278;2023-04-24T05:10:52;4.13;;;3.60;;
46322;SDS011;32044;52.386;13.278;2023-04-24T05:13:20;3.88;;;3.00;;
46322;SDS011;32044;52.386;13.278;2023-04-24T05:16:04;4.90;;;3.33;;
46322;SDS011;32044;52.386;13.278;2023-04-24T05:18:31;4.45;;;3.25;;
46322;SDS011;32044;52.386;13.278;2023-04-24T05:21:00;4.00;;;3.50;;
46322;SDS011;32044;52.386;13.278;2023-04-24T05:23:28;3.55;;;3.13;;
46322;SDS011;32044;52.386;13.278;2023-04-24T05:25:55;4.07;;;3.30;;
46322;SDS011;32044;52.386;13.278;2023-04-24T05:28:23;4.22;;;3.13;;
46322;SDS011;32044;52.386;13.278;2023-04-24T05:30:54;4.17;;;3.50;;
46322;SDS011;32044;52.386;13.278;2023-04-24T05:33:22;3.67;;;3.03;;
46322;SDS011;32044;52.386;13.278;2023-04-24T05:35:50;3.67;;;3.13;;
46322;SDS011;32044;52.386;13.278;2023-04-24T05:38:19;3.70;;;3.10;;
46322;SDS011;32044;52.386;13.278;2023-04-24T05:40:46;4.55;;;2.83;;
46322;SDS011;32044;52.386;13.278;2023-04-24T05:43:14;3.30;;;3.00;;
46322;SDS011;32044;52.386;13.278;2023-04-24T05:45:41;4.03;;;3.08;;
46322;SDS011;32044;52.386;13.278;2023-04-24T05:48:09;4.45;;;2.67;;
46322;SDS011;32044;52.386;13.278;2023-04-24T05:50:36;3.42;;;2.80;;
46322;SDS011;32044;52.386;13.278;2023-04-24T05:53:04;2.97;;;2.78;;
46322;SDS011;32044;52.386;13.278;2023-04-24T05:55:34;2.92;;;2.28;;
46322;SDS011;32044;52.386;13.278;2023-04-24T05:58:02;3.78;;;2.20;;
46322;SDS011;32044;52.386;13.278;2023-04-24T06:00:29;4.80;;;2.30;;
46322;SDS011;32044;52.386;13.278;2023-04-24T06:02:57;2.10;;;1.80;;
46322;SDS011;32044;52.386;13.278;2023-04-24T06:05:25;2.97;;;1.98;;
46322;SDS011;32044;52.386;13.278;2023-04-24T06:07:53;2.65;;;1.98;;
46322;SDS011;32044;52.386;13.278;2023-04-24T06:10:20;2.33;;;2.05;;
46322;SDS011;32044;52.386;13.278;2023-04-24T06:12:49;2.67;;;1.92;;
46322;SDS011;32044;52.386;13.278;2023-04-24T06:15:17;3.58;;;2.03;;
46322;SDS011;32044;52.386;13.278;2023-04-24T06:17:45;6.43;;;2.10;;
46322;SDS011;32044;52.386;13.278;2023-04-24T06:20:13;1.98;;;1.77;;
46322;SDS011;32044;52.386;13.278;2023-04-24T06:22:40;2.50;;;2.00;;
46322;SDS011;32044;52.386;13.278;2023-04-24T06:25:08;2.60;;;1.90;;
46322;SDS011;32044;52.386;13.278;2023-04-24T06:27:36;3.58;;;1.85;;
46322;SDS011;32044;52.386;13.278;2023-04-24T06:30:05;3.72;;;1.92;;
46322;SDS011;32044;52.386;13.278;2023-04-24T06:32:34;3.60;;;2.22;;
46322;SDS011;32044;52.386;13.278;2023-04-24T06:35:01;2.75;;;1.83;;
46322;SDS011;32044;52.386;13.278;2023-04-24T06:37:29;2.22;;;1.80;;
46322;SDS011;32044;52.386;13.278;2023-04-24T06:39:58;2.08;;;1.50;;
46322;SDS011;32044;52.386;13.278;2023-04-24T06:42:25;1.95;;;1.50;;
46322;SDS011;32044;52.386;13.278;2023-04-24T06:44:53;1.77;;;1.40;;
46322;SDS011;32044;52.386;13.278;2023-04-24T06:47:22;2.38;;;1.70;;
46322;SDS011;32044;52.386;13.278;2023-04-24T06:49:50;3.22;;;1.40;;
46322;SDS011;32044;52.386;13.278;2023-04-24T06:52:18;3.40;;;1.42;;
46322;SDS011;32044;52.386;13.278;2023-04-24T06:54:46;2.88;;;1.63;;
46322;SDS011;32044;52.386;13.278;2023-04-24T06:57:14;1.40;;;1.30;;
46322;SDS011;32044;52.386;13.278;2023-04-24T06:59:43;2.35;;;1.40;;
46322;SDS011;32044;52.386;13.278;2023-04-24T07:02:10;1.70;;;1.20;;
46322;SDS011;32044;52.386;13.278;2023-04-24T07:04:40;1.45;;;1.30;;
46322;SDS011;32044;52.386;13.278;2023-04-24T07:07:08;3.58;;;1.30;;
46322;SDS011;32044;52.386;13.278;2023-04-24T07:09:39;1.30;;;1.20;;
46322;SDS011;32044;52.386;13.278;2023-04-24T07:12:08;1.15;;;1.00;;
46322;SDS011;32044;52.386;13.278;2023-04-24T07:14:36;1.67;;;1.10;;
46322;SDS011;32044;52.386;13.278;2023-04-24T07:17:04;3.45;;;1.23;;
46322;SDS011;32044;52.386;13.278;2023-04-24T07:19:32;1.00;;;0.90;;
46322;SDS011;32044;52.386;13.278;2023-04-24T07:22:01;1.00;;;0.88;;
46322;SDS011;32044;52.386;13.278;2023-04-24T07:24:29;3.60;;;1.42;;
46322;SDS011;32044;52.386;13.278;2023-04-24T07:26:58;3.88;;;1.02;;
46322;SDS011;32044;52.386;13.278;2023-04-24T07:29:27;1.90;;;1.02;;
46322;SDS011;32044;52.386;13.278;2023-04-24T07:31:54;4.38;;;1.20;;
46322;SDS011;32044;52.386;13.278;2023-04-24T07:34:23;6.25;;;1.30;;
46322;SDS011;32044;52.386;13.278;2023-04-24T07:36:50;5.05;;;1.45;;
46322;SDS011;32044;52.386;13.278;2023-04-24T07:39:19;1.58;;;1.00;;
46322;SDS011;32044;52.386;13.278;2023-04-24T07:41:47;4.35;;;1.02;;
46322;SDS011;32044;52.386;13.278;2023-04-24T07:44:15;2.22;;;1.10;;
46322;SDS011;32044;52.386;13.278;2023-04-24T07:46:42;3.67;;;1.20;;
46322;SDS011;32044;52.386;13.278;2023-04-24T07:49:10;2.38;;;0.95;;
46322;SDS011;32044;52.386;13.278;2023-04-24T07:51:39;1.45;;;0.88;;
46322;SDS011;32044;52.386;13.278;2023-04-24T07:54:08;1.00;;;0.70;;
46322;SDS011;32044;52.386;13.278;2023-04-24T07:56:37;3.38;;;0.90;;
46322;SDS011;32044;52.386;13.278;2023-04-24T07:59:05;1.10;;;0.70;;
46322;SDS011;32044;52.386;13.278;2023-04-24T08:01:33;1.80;;;0.77;;
46322;SDS011;32044;52.386;13.278;2023-04-24T08:04:00;2.65;;;0.63;;
46322;SDS011;32044;52.386;13.278;2023-04-24T08:06:28;2.20;;;0.73;;
46322;SDS011;32044;52.386;13.278;2023-04-24T08:08:58;0.90;;;0.60;;
46322;SDS011;32044;52.386;13.278;2023-04-24T08:11:26;0.63;;;0.60;;
46322;SDS011;32044;52.386;13.278;2023-04-24T08:13:55;1.17;;;0.68;;
46322;SDS011;32044;52.386;13.278;2023-04-24T08:16:23;1.27;;;0.57;;
46322;SDS011;32044;52.386;13.278;2023-04-24T08:18:51;0.77;;;0.68;;
46322;SDS011;32044;52.386;13.278;2023-04-24T08:21:18;2.13;;;0.60;;
46322;SDS011;32044;52.386;13.278;2023-04-24T08:23:46;0.68;;;0.68;;
46322;SDS011;32044;52.386;13.278;2023-04-24T08:26:14;0.90;;;0.75;;
46322;SDS011;32044;52.386;13.278;2023-04-24T08:28:42;1.70;;;0.63;;
46322;SDS011;32044;52.386;13.278;2023-04-24T08:31:10;2.45;;;0.80;;
46322;SDS011;32044;52.386;13.278;2023-04-24T08:33:38;1.20;;;0.80;;
46322;SDS011;32044;52.386;13.278;2023-04-24T08:36:07;1.77;;;0.82;;
46322;SDS011;32044;52.386;13.278;2023-04-24T08:38:34;1.70;;;0.73;;
46322;SDS011;32044;52.386;13.278;2023-04-24T08:41:02;2.03;;;0.80;;
46322;SDS011;32044;52.386;13.278;2023-04-24T08:43:31;1.20;;;0.90;;
46322;SDS011;32044;52.386;13.278;2023-04-24T08:46:00;4.57;;;0.93;;
46322;SDS011;32044;52.386;13.278;2023-04-24T08:48:34;3.33;;;0.80;;
46322;SDS011;32044;52.386;13.278;2023-04-24T08:51:02;3.40;;;1.27;;
46322;SDS011;32044;52.386;13.278;2023-04-24T08:53:30;3.20;;;0.85;;
46322;SDS011;32044;52.386;13.278;2023-04-24T08:55:57;2.53;;;0.73;;
46322;SDS011;32044;52.386;13.278;2023-04-24T08:58:25;1.23;;;0.75;;
46322;SDS011;32044;52.386;13.278;2023-04-24T09:00:54;2.10;;;0.85;;
46322;SDS011;32044;52.386;13.278;2023-04-24T09:03:22;2.22;;;0.80;;
46322;SDS011;32044;52.386;13.278;2023-04-24T09:05:53;2.60;;;0.70;;
46322;SDS011;32044;52.386;13.278;2023-04-24T09:08:22;22.30;;;2.10;;
46322;SDS011;32044;52.386;13.278;2023-04-24T09:10:51;1.38;;;0.60;;
46322;SDS011;32044;52.386;13.278;2023-04-24T09:13:19;4.50;;;0.90;;
46322;SDS011;32044;52.386;13.278;2023-04-24T09:15:47;2.92;;;0.90;;
46322;SDS011;32044;52.386;13.278;2023-04-24T09:18:14;1.55;;;0.80;;
46322;SDS011;32044;52.386;13.278;2023-04-24T09:20:59;10.13;;;1.08;;
46322;SDS011;32044;52.386;13.278;2023-04-24T09:23:28;3.63;;;0.90;;
46322;SDS011;32044;52.386;13.278;2023-04-24T09:25:56;3.88;;;1.25;;
46322;SDS011;32044;52.386;13.278;2023-04-24T09:28:26;1.80;;;0.82;;
46322;SDS011;32044;52.386;13.278;2023-04-24T09:31:03;2.95;;;1.08;;
46322;SDS011;32044;52.386;13.278;2023-04-24T09:33:31;1.27;;;0.65;;
46322;SDS011;32044;52.386;13.278;2023-04-24T09:36:00;2.45;;;0.80;;
46322;SDS011;32044;52.386;13.278;2023-04-24T09:38:32;1.40;;;0.70;;
46322;SDS011;32044;52.386;13.278;2023-04-24T09:41:01;2.90;;;0.77;;
46322;SDS011;32044;52.386;13.278;2023-04-24T09:43:30;3.08;;;0.80;;
46322;SDS011;32044;52.386;13.278;2023-04-24T09:45:58;0.80;;;0.55;;
46322;SDS011;32044;52.386;13.278;2023-04-24T09:48:30;2.50;;;0.80;;
46322;SDS011;32044;52.386;13.278;2023-04-24T09:53:29;1.50;;;0.90;;
46322;SDS011;32044;52.386;13.278;2023-04-24T09:56:01;1.02;;;0.80;;
46322;SDS011;32044;52.386;13.278;2023-04-24T09:58:30;1.23;;;0.77;;
46322;SDS011;32044;52.386;13.278;2023-04-24T10:00:57;0.77;;;0.73;;
46322;SDS011;32044;52.386;13.278;2023-04-24T10:03:25;6.20;;;0.90;;
46322;SDS011;32044;52.386;13.278;2023-04-24T10:05:54;2.20;;;0.90;;
46322;SDS011;32044;52.386;13.278;2023-04-24T10:08:23;1.77;;;0.70;;
46322;SDS011;32044;52.386;13.278;2023-04-24T10:10:51;2.53;;;0.77;;
46322;SDS011;32044;52.386;13.278;2023-04-24T10:13:19;2.42;;;0.82;;
46322;SDS011;32044;52.386;13.278;2023-04-24T10:15:47;1.88;;;0.85;;
46322;SDS011;32044;52.386;13.278;2023-04-24T10:18:15;1.77;;;0.75;;
46322;SDS011;32044;52.386;13.278;2023-04-24T10:20:43;2.50;;;0.82;;
46322;SDS011;32044;52.386;13.278;2023-04-24T10:23:10;2.47;;;0.68;;
46322;SDS011;32044;52.386;13.278;2023-04-24T10:25:39;1.52;;;0.80;;
46322;SDS011;32044;52.386;13.278;2023-04-24T10:28:07;1.33;;;0.70;;
46322;SDS011;32044;52.386;13.278;2023-04-24T10:30:36;1.50;;;0.82;;
46322;SDS011;32044;52.386;13.278;2023-04-24T10:33:04;4.10;;;0.80;;
46322;SDS011;32044;52.386;13.278;2023-04-24T10:35:34;2.22;;;0.80;;
46322;SDS011;32044;52.386;13.278;2023-04-24T10:38:05;2.33;;;1.02;;
46322;SDS011;32044;52.386;13.278;2023-04-24T10:40:35;1.00;;;0.70;;
46322;SDS011;32044;52.386;13.278;2023-04-24T10:43:05;2.78;;;0.90;;
46322;SDS011;32044;52.386;13.278;2023-04-24T10:45:34;2.90;;;0.90;;
46322;SDS011;32044;52.386;13.278;2023-04-24T10:48:02;1.05;;;0.68;;
46322;SDS011;32044;52.386;13.278;2023-04-24T10:50:42;2.88;;;0.90;;
46322;SDS011;32044;52.386;13.278;2023-04-24T10:53:14;2.25;;;1.02;;
46322;SDS011;32044;52.386;13.278;2023-04-24T10:55:44;4.20;;;0.70;;
46322;SDS011;32044;52.386;13.278;2023-04-24T10:58:14;2.78;;;0.85;;
46322;SDS011;32044;52.386;13.278;2023-04-24T11:00:43;2.22;;;1.05;;
46322;SDS011;32044;52.386;13.278;2023-04-24T11:03:24;2.22;;;0.80;;
46322;SDS011;32044;52.386;13.278;2023-04-24T11:05:57;0.77;;;0.68;;
46322;SDS011;32044;52.386;13.278;2023-04-24T11:08:27;0.95;;;0.80;;
46322;SDS011;32044;52.386;13.278;2023-04-24T11:10:57;0.98;;;0.88;;
46322;SDS011;32044;52.386;13.278;2023-04-24T11:19:00;2.88;;;0.82;;
46322;SDS011;32044;52.386;13.278;2023-04-24T11:21:30;2.38;;;1.00;;
46322;SDS011;32044;52.386;13.278;2023-04-24T11:23:58;1.77;;;1.05;;
46322;SDS011;32044;52.386;13.278;2023-04-24T11:26:26;6.05;;;1.13;;
46322;SDS011;32044;52.386;13.278;2023-04-24T11:29:07;2.45;;;0.90;;
46322;SDS011;32044;52.386;13.278;2023-04-24T11:31:35;1.48;;;0.80;;
46322;SDS011;32044;52.386;13.278;2023-04-24T11:34:07;2.08;;;0.80;;
46322;SDS011;32044;52.386;13.278;2023-04-24T11:36:36;3.83;;;0.82;;
46322;SDS011;32044;52.386;13.278;2023-04-24T11:39:04;1.17;;;1.00;;
46322;SDS011;32044;52.386;13.278;2023-04-24T11:41:32;1.25;;;0.90;;
46322;SDS011;32044;52.386;13.278;2023-04-24T11:44:00;1.17;;;0.73;;
46322;SDS011;32044;52.386;13.278;2023-04-24T11:46:29;2.03;;;0.90;;
46322;SDS011;32044;52.386;13.278;2023-04-24T11:48:58;1.10;;;0.90;;
46322;SDS011;32044;52.386;13.278;2023-04-24T11:51:26;2.58;;;0.90;;
46322;SDS011;32044;52.386;13.278;2023-04-24T11:54:07;1.63;;;0.80;;
46322;SDS011;32044;52.386;13.278;2023-04-24T11:56:35;0.70;;;0.70;;
46322;SDS011;32044;52.386;13.278;2023-04-24T11:59:04;2.65;;;1.10;;
46322;SDS011;32044;52.386;13.278;2023-04-24T12:01:43;3.00;;;1.00;;
46322;SDS011;32044;52.386;13.278;2023-04-24T12:04:11;2.55;;;0.75;;
46322;SDS011;32044;52.386;13.278;2023-04-24T12:06:48;1.50;;;0.70;;
46322;SDS011;32044;52.386;13.278;2023-04-24T12:09:26;3.70;;;1.08;;
46322;SDS011;32044;52.386;13.278;2023-04-24T12:11:54;1.38;;;0.50;;
46322;SDS011;32044;52.386;13.278;2023-04-24T12:14:23;3.17;;;0.70;;
46322;SDS011;32044;52.386;13.278;2023-04-24T12:16:52;2.85;;;0.85;;
46322;SDS011;32044;52.386;13.278;2023-04-24T12:19:20;1.30;;;0.63;;
46322;SDS011;32044;52.386;13.278;2023-04-24T12:22:00;2.03;;;0.60;;
46322;SDS011;32044;52.386;13.278;2023-04-24T12:24:29;4.80;;;0.80;;
46322;SDS011;32044;52.386;13.278;2023-04-24T12:26:57;0.57;;;0.43;;
46322;SDS011;32044;52.386;13.278;2023-04-24T12:29:24;0.50;;;0.50;;
46322;SDS011;32044;52.386;13.278;2023-04-24T12:31:53;3.33;;;0.70;;
46322;SDS011;32044;52.386;13.278;2023-04-24T12:34:21;3.40;;;1.00;;
46322;SDS011;32044;52.386;13.278;2023-04-24T12:36:51;3.28;;;0.80;;
46322;SDS011;32044;52.386;13.278;2023-04-24T12:39:19;1.33;;;0.57;;
46322;SDS011;32044;52.386;13.278;2023-04-24T12:41:58;3.33;;;0.90;;
46322;SDS011;32044;52.386;13.278;2023-04-24T12:44:30;0.80;;;0.50;;
46322;SDS011;32044;52.386;13.278;2023-04-24T12:47:01;1.05;;;0.73;;
46322;SDS011;32044;52.386;13.278;2023-04-24T12:49:29;3.25;;;0.70;;
46322;SDS011;32044;52.386;13.278;2023-04-24T12:51:57;0.73;;;0.40;;
46322;SDS011;32044;52.386;13.278;2023-04-24T12:54:25;2.95;;;0.60;;
46322;SDS011;32044;52.386;13.278;2023-04-24T12:56:52;0.55;;;0.55;;
46322;SDS011;32044;52.386;13.278;2023-04-24T12:59:20;2.03;;;0.90;;
46322;SDS011;32044;52.386;13.278;2023-04-24T13:01:47;1.25;;;0.60;;
46322;SDS011;32044;52.386;13.278;2023-04-24T13:04:16;1.98;;;0.90;;
46322;SDS011;32044;52.386;13.278;2023-04-24T13:06:44;4.10;;;0.80;;
46322;SDS011;32044;52.386;13.278;2023-04-24T13:09:11;2.22;;;1.00;;
46322;SDS011;32044;52.386;13.278;2023-04-24T13:11:39;0.85;;;0.55;;
46322;SDS011;32044;52.386;13.278;2023-04-24T13:14:06;0.85;;;0.70;;
46322;SDS011;32044;52.386;13.278;2023-04-24T13:16:34;0.85;;;0.60;;
46322;SDS011;32044;52.386;13.278;2023-04-24T13:19:01;2.78;;;0.47;;
46322;SDS011;32044;52.386;13.278;2023-04-24T13:21:30;1.30;;;0.90;;
46322;SDS011;32044;52.386;13.278;2023-04-24T13:23:58;1.40;;;0.63;;
46322;SDS011;32044;52.386;13.278;2023-04-24T13:26:26;4.15;;;0.80;;
46322;SDS011;32044;52.386;13.278;2023-04-24T13:28:53;1.38;;;0.63;;
46322;SDS011;32044;52.386;13.278;2023-04-24T13:31:21;1.00;;;0.82;;
46322;SDS011;32044;52.386;13.278;2023-04-24T13:33:48;3.17;;;0.93;;
46322;SDS011;32044;52.386;13.278;2023-04-24T13:36:16;1.38;;;0.80;;
46322;SDS011;32044;52.386;13.278;2023-04-24T13:38:46;1.13;;;0.90;;
46322;SDS011;32044;52.386;13.278;2023-04-24T13:41:13;0.82;;;0.77;;
46322;SDS011;32044;52.386;13.278;2023-04-24T13:43:41;1.23;;;0.57;;
46322;SDS011;32044;52.386;13.278;2023-04-24T13:46:09;0.90;;;0.70;;
46322;SDS011;32044;52.386;13.278;2023-04-24T13:48:37;1.67;;;0.90;;
46322;SDS011;32044;52.386;13.278;2023-04-24T13:51:05;2.10;;;0.90;;
46322;SDS011;32044;52.386;13.278;2023-04-24T13:53:32;2.53;;;0.95;;
46322;SDS011;32044;52.386;13.278;2023-04-24T13:56:03;2.67;;;0.60;;
46322;SDS011;32044;52.386;13.278;2023-04-24T13:58:31;1.45;;;0.57;;
46322;SDS011;32044;52.386;13.278;2023-04-24T14:00:59;1.95;;;0.77;;
46322;SDS011;32044;52.386;13.278;2023-04-24T14:03:27;1.63;;;0.63;;
46322;SDS011;32044;52.386;13.278;2023-04-24T14:05:55;1.65;;;0.95;;
46322;SDS011;32044;52.386;13.278;2023-04-24T14:08:22;2.47;;;0.77;;
46322;SDS011;32044;52.386;13.278;2023-04-24T14:10:50;2.47;;;0.70;;
46322;SDS011;32044;52.386;13.278;2023-04-24T14:13:19;2.05;;;0.60;;
46322;SDS011;32044;52.386;13.278;2023-04-24T14:15:47;2.08;;;0.98;;
46322;SDS011;32044;52.386;13.278;2023-04-24T14:18:15;3.17;;;1.13;;
46322;SDS011;32044;52.386;13.278;2023-04-24T14:20:42;0.93;;;0.80;;
46322;SDS011;32044;52.386;13.278;2023-04-24T14:23:10;2.53;;;0.98;;
46322;SDS011;32044;52.386;13.278;2023-04-24T14:25:37;3.55;;;0.90;;
46322;SDS011;32044;52.386;13.278;2023-04-24T14:28:05;4.40;;;1.00;;
46322;SDS011;32044;52.386;13.278;2023-04-24T14:30:34;5.93;;;1.20;;
46322;SDS011;32044;52.386;13.278;2023-04-24T14:33:03;2.72;;;0.90;;
46322;SDS011;32044;52.386;13.278;2023-04-24T14:35:31;7.97;;;1.20;;
46322;SDS011;32044;52.386;13.278;2023-04-24T14:38:00;4.45;;;1.20;;
46322;SDS011;32044;52.386;13.278;2023-04-24T14:40:28;1.17;;;0.88;;
46322;SDS011;32044;52.386;13.278;2023-04-24T14:43:15;0.60;;;0.60;;
46322;SDS011;32044;52.386;13.278;2023-04-24T14:45:44;0.73;;;0.73;;
46322;SDS011;32044;52.386;13.278;2023-04-24T14:48:21;2.00;;;1.10;;